< < Back
Terminal Aerodrome Forecast


Current Version              Previous Versions:   1  2  3  4  5  6  7  8  9  

Terminal Aerodrome Forecast

446
FTUS44 KBMX 181720
TAFMGM
TAF
KMGM 181720Z 1818/1918 15005KT P6SM BKN025
     FM190600 15008KT 5SM SHRA OVC007
     FM191200 18008KT P6SM OVC007=

Latest METAR

041
SAUS80 KWBC 190800 RRB
MTRMGM
METAR KMGM 190753Z AUTO 16003KT 10SM BKN015 OVC019 22/20 A2981 RMK AO2
RAE00 SLP092 P0001 T02170200


USA.gov is the U.S. government's official web portal to all federal, state and local government web resources and services.